Time;durP1;ratioP1;P1;durP2;ratioP2;P2;SDS_P1;SDS_P2;PMS_P1;PMS_P2;Temp;Humidity;BMP_temperature;BMP_pressure;BME280_temperature;BME280_humidity;BME280_pressure;Samples;Min_cycle;Max_cycle;Signal;HPM_P1;HPM_P2
2022/08/12 00:47:42;;;;;;;1.98;1.40;;;21.80;76.30;;;;;;6725207;88;20219;-76
2022/08/12 00:57:47;;;;;;;1.95;1.20;;;21.80;76.20;;;;;;6724646;88;20202;-76
2022/08/12 01:18:08;;;;;;;2.00;1.17;;;21.50;77.90;;;;;;6722709;88;20659;-75
2022/08/12 01:28:12;;;;;;;2.00;1.20;;;21.30;78.80;;;;;;6721475;88;20228;-76
2022/08/12 01:38:19;;;;;;;2.10;1.30;;;21.10;78.50;;;;;;6736114;88;20213;-77
2022/08/12 01:48:42;;;;;;;1.70;0.98;;;21.00;79.20;;;;;;6718331;88;20217;-77
2022/08/12 02:19:33;;;;;;;1.42;0.88;;;20.90;79.30;;;;;;6725643;88;20201;-75
2022/08/12 02:29:35;;;;;;;1.98;1.23;;;20.70;79.70;;;;;;6729454;88;20253;-76
2022/08/12 02:39:39;;;;;;;1.37;0.90;;;20.60;79.80;;;;;;6728227;88;20174;-75
2022/08/12 02:49:51;;;;;;;2.33;1.15;;;20.40;80.80;;;;;;6729748;88;20738;-76
2022/08/12 02:59:53;;;;;;;2.10;1.20;;;20.10;82.60;;;;;;6726035;88;20203;-77
2022/08/12 03:10:04;;;;;;;1.33;0.88;;;20.10;85.00;;;;;;6728747;88;20753;-77
2022/08/12 03:20:06;;;;;;;1.80;1.00;;;20.10;84.70;;;;;;6724576;88;20275;-76
2022/08/12 03:30:07;;;;;;;1.40;1.00;;;19.70;87.00;;;;;;6721860;88;20215;-75
2022/08/12 03:41:31;;;;;;;1.87;1.10;;;19.70;87.70;;;;;;6723416;88;20181;-76
2022/08/12 04:00:49;;;;;;;2.70;1.10;;;19.60;89.50;;;;;;6729735;88;20205;-77
2022/08/12 04:21:09;;;;;;;1.42;0.90;;;19.40;91.70;;;;;;6726018;88;20173;-76
2022/08/12 04:31:11;;;;;;;1.67;1.00;;;19.30;92.90;;;;;;6722574;88;20669;-76
2022/08/12 04:41:13;;;;;;;1.55;0.95;;;19.00;93.10;;;;;;6721300;88;20284;-76
2022/08/12 04:51:14;;;;;;;1.55;1.05;;;18.70;94.60;;;;;;6718407;88;20263;-77
2022/08/12 05:01:14;;;;;;;1.60;0.90;;;18.60;96.20;;;;;;6720511;88;20764;-76
2022/08/12 05:11:15;;;;;;;2.03;1.20;;;18.80;97.20;;;;;;6729282;88;20190;-78
2022/08/12 05:21:16;;;;;;;2.00;1.15;;;18.70;98.10;;;;;;6717291;88;20196;-77
2022/08/12 05:31:17;;;;;;;1.80;1.10;;;18.80;99.30;;;;;;6721369;88;20190;-77
2022/08/12 05:41:19;;;;;;;1.37;1.00;;;18.90;99.80;;;;;;6724716;88;20541;-77
2022/08/12 05:51:24;;;;;;;1.98;1.17;;;19.30;99.90;;;;;;6721509;88;20687;-76
2022/08/12 06:01:26;;;;;;;1.83;1.05;;;19.60;99.90;;;;;;6715563;88;20243;-76
2022/08/12 06:11:26;;;;;;;1.70;0.90;;;20.30;99.90;;;;;;6715036;88;21019;-76
2022/08/12 06:21:27;;;;;;;2.17;1.20;;;20.80;99.10;;;;;;6720795;88;20638;-76
2022/08/12 06:31:27;;;;;;;1.67;1.10;;;21.20;98.50;;;;;;6714447;88;20196;-76
2022/08/12 06:51:47;;;;;;;2.60;1.40;;;22.40;94.20;;;;;;6737425;88;20185;-76
2022/08/12 07:01:47;;;;;;;1.60;1.15;;;23.30;94.00;;;;;;6725223;88;20622;-76
2022/08/12 07:11:48;;;;;;;1.60;1.05;;;24.10;91.40;;;;;;6723658;88;20728;-76
2022/08/12 07:21:49;;;;;;;1.62;0.90;;;24.40;85.00;;;;;;6721850;88;20327;-76
2022/08/12 07:31:49;;;;;;;1.55;0.98;;;24.90;82.70;;;;;;6723994;88;20197;-76
2022/08/12 07:41:50;;;;;;;1.80;1.20;;;25.70;79.30;;;;;;6721668;88;20192;-76
2022/08/12 07:51:50;;;;;;;1.12;0.90;;;26.10;78.10;;;;;;6718474;88;20204;-76
2022/08/12 08:01:52;;;;;;;1.60;1.00;;;26.50;76.10;;;;;;6721402;88;20292;-76
2022/08/12 08:22:12;;;;;;;1.20;0.90;;;27.40;74.30;;;;;;6726174;88;20702;-77
2022/08/12 08:32:13;;;;;;;1.77;1.00;;;29.10;72.50;;;;;;6725785;88;20196;-77
2022/08/12 08:52:33;;;;;;;3.28;1.30;;;30.60;66.90;;;;;;6722350;88;20189;-76
2022/08/12 09:02:33;;;;;;;1.20;0.75;;;31.10;66.10;;;;;;6728233;88;20723;-75
2022/08/12 09:22:55;;;;;;;0.90;0.60;;;32.20;61.50;;;;;;6718875;88;20254;-76
2022/08/12 09:32:56;;;;;;;1.30;0.80;;;31.40;59.80;;;;;;6716026;88;20305;-75
2022/08/12 09:53:23;;;;;;;1.02;0.70;;;31.10;59.70;;;;;;6721201;88;20202;-76
2022/08/12 10:03:27;;;;;;;1.05;0.60;;;31.60;57.30;;;;;;6719851;88;20190;-76
2022/08/12 10:13:42;;;;;;;0.98;0.60;;;31.40;56.40;;;;;;6720726;88;20181;-76
2022/08/12 10:23:45;;;;;;;1.10;0.65;;;32.90;55.10;;;;;;6723824;88;20246;-76
2022/08/12 10:33:45;;;;;;;1.33;0.80;;;32.40;55.30;;;;;;6718990;88;20182;-76
2022/08/12 10:43:46;;;;;;;0.98;0.60;;;32.50;54.80;;;;;;6722790;88;20261;-76
2022/08/12 10:53:47;;;;;;;1.00;0.60;;;33.30;54.20;;;;;;6723112;88;20182;-77
2022/08/12 11:03:48;;;;;;;1.27;0.70;;;34.70;54.90;;;;;;6723522;88;20206;-76
2022/08/12 11:13:49;;;;;;;1.00;0.52;;;34.40;53.20;;;;;;6726370;88;20186;-77
2022/08/12 11:23:49;;;;;;;0.90;0.60;;;34.60;52.70;;;;;;6714313;88;20185;-76
2022/08/12 11:33:50;;;;;;;1.12;0.70;;;34.50;53.30;;;;;;6715020;88;20219;-76
2022/08/12 11:43:50;;;;;;;1.20;0.70;;;34.40;53.70;;;;;;6719056;88;20215;-76
2022/08/12 11:53:51;;;;;;;1.00;0.60;;;33.90;53.10;;;;;;6721378;88;20181;-76
2022/08/12 12:03:51;;;;;;;1.08;0.60;;;34.50;50.80;;;;;;6713249;88;21057;-77
2022/08/12 12:13:52;;;;;;;1.00;0.70;;;34.60;51.10;;;;;;6722316;88;20219;-76
2022/08/12 12:23:53;;;;;;;1.83;0.83;;;34.40;51.40;;;;;;6715781;88;20182;-77
2022/08/12 12:33:53;;;;;;;1.12;0.73;;;36.60;51.10;;;;;;6720992;88;20181;-76
2022/08/12 12:43:54;;;;;;;1.12;0.70;;;37.30;49.40;;;;;;6718941;88;20311;-77
2022/08/12 12:53:55;;;;;;;0.88;0.60;;;36.20;49.80;;;;;;6721939;88;20818;-76
2022/08/12 13:03:56;;;;;;;1.58;0.70;;;36.00;49.00;;;;;;6710953;88;20347;-76
2022/08/12 13:13:56;;;;;;;1.00;0.77;;;35.50;49.30;;;;;;6720632;88;20287;-76
2022/08/12 13:23:57;;;;;;;1.10;0.70;;;37.30;49.10;;;;;;6721286;88;20205;-78
2022/08/12 13:33:58;;;;;;;1.00;0.70;;;37.00;48.30;;;;;;6723203;88;20741;-77
2022/08/12 13:44:04;;;;;;;1.20;0.73;;;37.90;48.10;;;;;;6728270;88;20205;-77
2022/08/12 13:54:04;;;;;;;1.08;0.70;;;37.20;48.50;;;;;;6730609;88;20235;-78
2022/08/12 14:04:05;;;;;;;0.97;0.60;;;38.00;47.10;;;;;;6721144;88;20203;-77
2022/08/12 14:14:05;;;;;;;1.05;0.62;;;37.60;46.90;;;;;;6726467;88;20185;-77
2022/08/12 14:24:07;;;;;;;0.90;0.55;;;36.70;47.50;;;;;;6731044;88;20193;-77
2022/08/12 14:34:08;;;;;;;0.80;0.60;;;38.00;47.00;;;;;;6721538;88;20193;-78
2022/08/12 14:44:08;;;;;;;1.15;0.80;;;36.80;47.70;;;;;;6724950;88;20648;-77
2022/08/12 14:54:09;;;;;;;0.90;0.60;;;36.60;46.80;;;;;;6726351;88;20202;-77
2022/08/12 15:04:12;;;;;;;1.20;0.80;;;36.60;47.10;;;;;;6727126;88;20223;-77
2022/08/12 15:14:13;;;;;;;1.23;0.95;;;36.40;48.00;;;;;;6723795;88;20340;-77
2022/08/12 15:24:14;;;;;;;1.52;0.62;;;37.60;47.30;;;;;;6721453;88;20201;-77
2022/08/12 15:34:14;;;;;;;2.15;0.85;;;36.60;47.40;;;;;;6725488;88;20248;-76
2022/08/12 15:44:14;;;;;;;;;;;35.60;47.60;;;;;;6722434;88;20202;-77
2022/08/12 15:54:15;;;;;;;1.00;0.60;;;35.20;47.90;;;;;;6719187;88;20065;-76
2022/08/12 16:04:17;;;;;;;1.50;1.00;;;35.10;48.40;;;;;;6717565;88;20523;-77
2022/08/12 16:14:18;;;;;;;1.17;0.73;;;35.30;48.20;;;;;;6717163;88;20550;-76
2022/08/12 16:24:19;;;;;;;1.00;0.62;;;34.70;48.70;;;;;;6722749;88;20205;-77
2022/08/12 16:34:19;;;;;;;1.60;0.80;;;34.90;48.00;;;;;;6715858;88;20306;-78
2022/08/12 16:44:20;;;;;;;0.90;0.60;;;34.60;47.80;;;;;;6730867;88;20205;-77
2022/08/12 16:54:21;;;;;;;1.00;0.60;;;33.50;48.00;;;;;;6719720;88;20197;-78
2022/08/12 17:04:21;;;;;;;1.07;0.70;;;33.00;49.10;;;;;;6722286;88;20254;-78
2022/08/12 17:14:22;;;;;;;0.83;0.50;;;32.60;50.00;;;;;;6724271;88;20315;-78
2022/08/12 17:24:24;;;;;;;1.05;0.73;;;32.50;50.00;;;;;;6730206;88;20288;-78
2022/08/12 17:44:47;;;;;;;0.90;0.55;;;34.00;48.90;;;;;;6717816;88;20569;-78
2022/08/12 17:54:51;;;;;;;0.95;0.50;;;34.10;49.30;;;;;;6723387;88;20177;-78
2022/08/12 18:04:52;;;;;;;1.45;1.00;;;31.80;50.90;;;;;;6724545;88;20210;-78
2022/08/12 18:14:59;;;;;;;2.72;2.25;;;31.00;51.60;;;;;;6708925;88;20190;-78
2022/08/12 18:25:03;;;;;;;2.83;2.17;;;30.40;51.80;;;;;;6713320;88;20266;-78
2022/08/12 18:35:04;;;;;;;2.30;1.85;;;30.00;52.20;;;;;;6725649;88;20322;-77
2022/08/12 18:45:08;;;;;;;2.40;1.90;;;29.80;52.40;;;;;;6722140;88;20185;-77
2022/08/12 18:55:10;;;;;;;3.03;2.17;;;29.50;53.20;;;;;;6722391;88;20688;-77
2022/08/12 19:05:13;;;;;;;3.23;2.17;;;29.20;53.70;;;;;;6723899;88;20194;-77
2022/08/12 19:15:13;;;;;;;2.90;2.00;;;28.90;54.30;;;;;;6722719;88;20201;-77
2022/08/12 19:25:24;;;;;;;3.10;2.30;;;28.50;54.80;;;;;;6719404;88;20197;-78
2022/08/12 19:35:27;;;;;;;3.97;2.67;;;28.20;55.50;;;;;;6726916;88;20202;-78
2022/08/12 19:45:28;;;;;;;;;;;28.10;55.70;;;;;;6718990;88;20169;-76
2022/08/12 19:55:30;;;;;;;3.53;2.05;;;27.70;56.70;;;;;;6713641;88;20760;-73
2022/08/12 20:05:36;;;;;;;3.28;2.42;;;27.50;57.00;;;;;;6719475;88;20304;-73
2022/08/12 20:15:36;;;;;;;2.97;1.90;;;27.20;57.40;;;;;;6699733;88;20212;-73
2022/08/12 20:25:37;;;;;;;3.37;1.87;;;27.00;57.60;;;;;;6711893;88;20220;-73
2022/08/12 20:35:38;;;;;;;3.25;1.98;;;26.70;58.30;;;;;;6710236;88;20282;-73
2022/08/12 20:45:38;;;;;;;2.10;1.50;;;26.50;58.20;;;;;;6707563;88;20451;-73
2022/08/12 20:55:41;;;;;;;2.42;1.52;;;26.30;58.90;;;;;;6712820;88;20202;-73
2022/08/12 21:16:01;;;;;;;2.00;1.37;;;26.00;59.40;;;;;;6708769;88;20208;-73
2022/08/12 21:26:01;;;;;;;1.50;0.98;;;25.80;59.30;;;;;;6710786;88;20697;-73
2022/08/12 21:36:02;;;;;;;2.35;0.95;;;25.70;59.50;;;;;;6706479;88;20597;-73
2022/08/12 21:46:03;;;;;;;1.77;0.95;;;25.70;59.70;;;;;;6709712;88;20860;-72
2022/08/12 21:56:04;;;;;;;1.70;1.00;;;25.70;59.20;;;;;;6703504;88;20185;-73
2022/08/12 22:06:18;;;;;;;1.62;1.00;;;25.70;59.70;;;;;;6707046;88;20198;-72
2022/08/12 22:16:19;;;;;;;1.67;1.20;;;25.50;60.00;;;;;;6705543;88;20266;-73
2022/08/12 22:26:19;;;;;;;1.87;1.02;;;25.10;60.70;;;;;;6699535;88;20238;-74
2022/08/12 22:36:23;;;;;;;1.87;1.20;;;24.90;61.20;;;;;;6702718;88;20214;-72
2022/08/12 22:56:36;;;;;;;1.83;1.10;;;24.60;62.40;;;;;;6726427;88;20231;-73
2022/08/12 23:06:37;;;;;;;1.65;0.90;;;24.50;62.50;;;;;;6725053;88;20177;-73
2022/08/12 23:16:39;;;;;;;1.45;0.90;;;24.40;62.40;;;;;;6723787;88;20262;-73
2022/08/12 23:36:59;;;;;;;0.90;0.50;;;24.40;62.70;;;;;;6716704;88;20712;-75
2022/08/12 23:47:07;;;;;;;1.17;0.50;;;24.60;62.30;;;;;;6715099;88;20315;-75
2022/08/12 23:57:15;;;;;;;0.82;0.40;;;24.60;62.50;;;;;;6712324;88;20179;-75
